EDDF/FRA METAR and TAF weather

Enter ICAO airport designator
Station Type Date Time Source
EDDF METAR 2019/04/25 15:50 UTC NOAA

EDDF 251550Z 11010KT CAVOK 25/03 Q1004 BECMG 24010KT


Station Type Date Time Source
EDDF Decoded METAR 2019/04/25 15:50 UTC NOAA

Frankfurt / M-Flughafen, Germany (EDDF) 50-03N 008-36E 113M
Apr 25, 2019 - 11:50 AM EDT / 2019.04.25 1550 UTC
Wind: from the ESE (110 degrees) at 12 MPH (10 KT):0
Visibility: greater than 7 mile(s):0
Temperature: 77 F (25 C)
Dew Point: 37 F (3 C)
Relative Humidity: 23%
Pressure (altimeter): 29.65 in. Hg (1004 hPa)
ob: EDDF 251550Z 11010KT CAVOK 25/03 Q1004 BECMG 24010KT
cycle: 16

Station Type Date Time Source
EDDF TAF 2019/04/25 12:43 UTC NOAA

TAF
AMD EDDF 251231Z 2512/2618 11010KT CAVOK
BECMG 2516/2518 24008KT
TEMPO 2516/2519 26015G30KT PROB30
TEMPO 2516/2519 27020G40KT TSRAGR SCT050CB PROB30
TEMPO 2612/2618 SHRA SCT040CB

Example: see airport list